createdAt,value
2023-04-12T00:00:04.569Z,18.17
2023-04-12T00:00:27.166Z,18.14
2023-04-12T00:00:50.726Z,18.10
2023-04-12T00:01:13.498Z,18.09
2023-04-12T00:01:35.318Z,18.09
2023-04-12T00:01:57.076Z,18.06
2023-04-12T00:02:19.284Z,17.97
2023-04-12T00:02:44.700Z,18.00
2023-04-12T00:03:07.752Z,18.00
2023-04-12T00:03:30.523Z,18.00
2023-04-12T00:03:54.305Z,17.99
2023-04-12T00:04:17.655Z,17.99
2023-04-12T00:04:40.342Z,17.98
2023-04-12T00:05:03.291Z,17.98
2023-04-12T00:05:27.034Z,18.00
2023-04-12T00:05:54.799Z,18.01
2023-04-12T00:06:17.168Z,18.03
2023-04-12T00:06:40.256Z,18.05
2023-04-12T00:07:02.647Z,18.03
2023-04-12T00:07:24.888Z,18.06
2023-04-12T00:07:47.499Z,18.05
2023-04-12T00:08:10.751Z,18.07
2023-04-12T00:08:33.786Z,18.04
2023-04-12T00:08:56.145Z,17.99
2023-04-12T00:09:17.863Z,17.99
2023-04-12T00:09:40.614Z,17.97
2023-04-12T00:10:03.202Z,18.03
2023-04-12T00:10:26.079Z,17.98
2023-04-12T00:10:47.740Z,17.99
2023-04-12T00:11:10.376Z,17.95
2023-04-12T00:11:32.286Z,17.96
2023-04-12T00:11:55.362Z,17.98
2023-04-12T00:12:17.854Z,18.00
2023-04-12T00:12:41.460Z,18.00
2023-04-12T00:13:03.527Z,17.81
2023-04-12T00:13:25.258Z,17.99
2023-04-12T00:13:46.929Z,17.96
2023-04-12T00:14:08.653Z,17.98
2023-04-12T00:14:31.349Z,17.96
2023-04-12T00:14:53.040Z,17.90
2023-04-12T00:15:15.429Z,17.87
2023-04-12T00:15:37.228Z,17.93
2023-04-12T00:16:00.257Z,17.93
2023-04-12T00:16:22.102Z,17.94
2023-04-12T00:16:43.908Z,17.95
2023-04-12T00:17:05.741Z,17.93
2023-04-12T00:17:28.619Z,17.85
2023-04-12T00:17:50.327Z,17.90
2023-04-12T00:18:12.071Z,17.79
2023-04-12T00:18:33.783Z,17.76
2023-04-12T00:18:57.230Z,17.81
2023-04-12T00:19:19.002Z,17.68
2023-04-12T00:19:41.858Z,17.69
2023-04-12T00:20:05.983Z,17.73
2023-04-12T00:21:10.346Z,17.79
2023-04-12T00:21:32.417Z,17.80
2023-04-12T00:21:54.299Z,17.78
2023-04-12T00:22:16.166Z,17.76
2023-04-12T00:22:38.220Z,17.75
2023-04-12T00:23:00.815Z,17.79
2023-04-12T00:23:22.536Z,17.79
2023-04-12T00:23:44.912Z,17.78
2023-04-12T00:24:07.337Z,17.73
2023-04-12T00:24:30.000Z,17.71
2023-04-12T00:24:51.659Z,17.75
2023-04-12T00:25:13.347Z,17.74
2023-04-12T00:25:35.140Z,17.71
2023-04-12T00:25:56.796Z,17.68
2023-04-12T00:26:21.655Z,17.69
2023-04-12T00:26:43.698Z,17.71
2023-04-12T00:27:06.930Z,17.64
2023-04-12T00:27:28.627Z,17.68
2023-04-12T00:27:51.313Z,17.61
2023-04-12T00:28:13.144Z,17.59
2023-04-12T00:28:34.805Z,17.55
2023-04-12T00:28:56.494Z,17.54
2023-04-12T00:29:18.203Z,17.55
2023-04-12T00:29:41.147Z,17.55
2023-04-12T00:30:05.253Z,17.59
2023-04-12T00:30:27.078Z,17.61
2023-04-12T00:30:48.824Z,17.63
2023-04-12T00:31:11.566Z,17.64
2023-04-12T00:31:33.297Z,17.61
2023-04-12T00:31:57.840Z,17.44
2023-04-12T00:32:19.513Z,17.41
2023-04-12T00:32:42.647Z,17.40
2023-04-12T00:33:04.863Z,17.39
2023-04-12T00:33:26.629Z,17.35
2023-04-12T00:33:48.326Z,17.30
2023-04-12T00:34:11.385Z,17.31
2023-04-12T00:34:33.050Z,17.23
2023-04-12T00:34:54.744Z,17.22
2023-04-12T00:35:16.454Z,17.24
2023-04-12T00:35:39.148Z,17.24
2023-04-12T00:36:01.223Z,17.19
2023-04-12T00:36:22.961Z,17.25
2023-04-12T00:36:44.608Z,17.30
2023-04-12T00:37:07.327Z,17.33
2023-04-12T00:37:29.367Z,17.26
2023-04-12T00:37:51.234Z,17.21
2023-04-12T00:38:13.612Z,17.20
2023-04-12T00:38:36.536Z,17.19
2023-04-12T00:38:58.778Z,17.24
2023-04-12T00:39:20.481Z,17.26
2023-04-12T00:39:42.142Z,17.28
2023-04-12T00:40:06.898Z,17.32
2023-04-12T00:40:28.633Z,17.34
2023-04-12T00:40:52.271Z,17.29
2023-04-12T00:41:13.987Z,17.28
2023-04-12T00:41:37.945Z,17.28
2023-04-12T00:42:03.859Z,17.33
2023-04-12T00:42:27.688Z,17.37
2023-04-12T00:42:49.381Z,17.38
2023-04-12T00:43:15.403Z,17.39
2023-04-12T00:43:37.301Z,17.40
2023-04-12T00:43:59.237Z,17.44
2023-04-12T00:44:21.252Z,17.48
2023-04-12T00:44:42.973Z,17.41
2023-04-12T00:45:07.105Z,17.41
2023-04-12T00:45:29.158Z,17.43
2023-04-12T00:45:51.099Z,17.44
2023-04-12T00:46:12.988Z,17.41
2023-04-12T00:46:35.880Z,17.34
2023-04-12T00:46:58.401Z,17.38
2023-04-12T00:47:20.533Z,17.38
2023-04-12T00:47:43.282Z,17.40
2023-04-12T00:48:06.720Z,17.38
2023-04-12T00:48:28.912Z,17.34
2023-04-12T00:48:51.746Z,17.25
2023-04-12T00:49:14.635Z,17.25
2023-04-12T00:49:39.339Z,17.28
2023-04-12T00:50:01.453Z,17.27
2023-04-12T00:50:24.102Z,17.29
2023-04-12T00:50:46.617Z,17.31
2023-04-12T00:51:08.647Z,17.33
2023-04-12T00:51:33.644Z,17.32
2023-04-12T00:51:55.446Z,17.27
2023-04-12T00:52:17.989Z,17.29
2023-04-12T00:52:40.376Z,17.21
2023-04-12T00:53:04.544Z,17.23
2023-04-12T00:53:28.092Z,17.22
2023-04-12T00:53:49.803Z,17.16
2023-04-12T00:54:14.014Z,17.13
2023-04-12T00:54:37.494Z,17.15
2023-04-12T00:54:59.260Z,17.18
2023-04-12T00:55:21.400Z,17.13
2023-04-12T00:55:44.353Z,17.10
2023-04-12T00:56:11.947Z,17.12
2023-04-12T00:56:34.025Z,17.18
2023-04-12T00:56:57.240Z,17.12
2023-04-12T00:57:19.069Z,17.19
2023-04-12T00:57:43.102Z,17.19
2023-04-12T00:58:05.721Z,17.18
2023-04-12T00:58:27.494Z,17.24
2023-04-12T00:58:49.269Z,17.23
2023-04-12T00:59:11.933Z,17.13
2023-04-12T00:59:33.610Z,17.15
2023-04-12T00:59:55.394Z,17.06
2023-04-12T01:00:17.787Z,17.08
2023-04-12T01:00:39.746Z,17.08
2023-04-12T01:01:02.862Z,17.09
2023-04-12T01:01:24.671Z,17.19
2023-04-12T01:01:46.448Z,17.18
2023-04-12T01:02:08.247Z,17.16
2023-04-12T01:02:31.229Z,17.13
2023-04-12T01:02:54.736Z,17.14
2023-04-12T01:03:17.057Z,17.19
2023-04-12T01:03:43.344Z,17.19
2023-04-12T01:04:06.459Z,17.25
2023-04-12T01:04:28.881Z,17.27
2023-04-12T01:04:53.343Z,17.22
2023-04-12T01:05:21.962Z,17.26
2023-04-12T01:05:54.387Z,17.30
2023-04-12T01:06:21.980Z,17.29
2023-04-12T01:07:01.555Z,17.17
2023-04-12T01:07:37.808Z,17.23
2023-04-12T01:08:10.666Z,17.17
2023-04-12T01:08:43.695Z,17.20
2023-04-12T01:09:16.880Z,17.17
2023-04-12T01:09:50.131Z,17.21
2023-04-12T01:10:18.461Z,17.22
2023-04-12T01:10:47.350Z,17.27
2023-04-12T01:11:15.439Z,17.21
2023-04-12T01:11:44.601Z,17.17
2023-04-12T01:12:21.070Z,17.18
2023-04-12T01:12:54.437Z,17.12
2023-04-12T01:13:28.835Z,17.00
2023-04-12T01:13:58.553Z,16.78
2023-04-12T01:14:29.820Z,16.91
2023-04-12T01:14:57.223Z,16.94
2023-04-12T01:15:19.295Z,16.98
2023-04-12T01:15:51.483Z,17.04
2023-04-12T01:16:26.390Z,17.06
2023-04-12T01:16:51.116Z,17.06
2023-04-12T01:17:20.845Z,17.09
2023-04-12T01:17:47.817Z,17.10
2023-04-12T01:18:17.734Z,17.16
2023-04-12T01:18:45.874Z,17.18
2023-04-12T01:19:29.709Z,17.20
2023-04-12T01:19:57.790Z,17.17
2023-04-12T01:20:24.346Z,16.93
2023-04-12T01:20:53.811Z,16.99
2023-04-12T01:21:20.143Z,17.04
2023-04-12T01:21:53.991Z,17.03
2023-04-12T01:22:30.135Z,17.09
2023-04-12T01:23:14.939Z,17.05
2023-04-12T01:23:55.055Z,17.03
2023-04-12T01:24:26.631Z,17.04
2023-04-12T01:25:02.749Z,16.98
2023-04-12T01:25:39.172Z,16.94
2023-04-12T01:26:12.098Z,16.99
2023-04-12T01:26:42.157Z,16.97
2023-04-12T01:27:11.156Z,16.99
2023-04-12T01:27:43.301Z,16.98
2023-04-12T01:28:07.378Z,17.02
2023-04-12T01:28:34.630Z,17.06
2023-04-12T01:28:57.827Z,17.06
2023-04-12T01:29:21.815Z,17.08
2023-04-12T01:29:49.827Z,17.02
2023-04-12T01:30:15.780Z,17.10
2023-04-12T01:30:39.011Z,17.08
2023-04-12T01:31:02.141Z,17.11
2023-04-12T01:31:26.213Z,17.09
2023-04-12T01:31:53.219Z,17.12
2023-04-12T01:32:18.872Z,17.15
2023-04-12T01:32:44.179Z,17.07
2023-04-12T01:33:07.927Z,17.14
2023-04-12T01:33:36.811Z,17.16
2023-04-12T01:34:00.995Z,17.13
2023-04-12T01:34:24.421Z,17.13
2023-04-12T01:34:46.830Z,17.17
2023-04-12T01:35:09.713Z,17.16
2023-04-12T01:35:34.907Z,17.19
2023-04-12T01:36:00.580Z,17.19
2023-04-12T01:36:27.206Z,17.17
2023-04-12T01:36:50.726Z,17.13
2023-04-12T01:37:13.159Z,17.11
2023-04-12T01:37:37.314Z,17.08
2023-04-12T01:38:00.256Z,17.03
2023-04-12T01:38:21.982Z,17.03
2023-04-12T01:38:43.866Z,17.04
2023-04-12T01:39:08.873Z,16.98
2023-04-12T01:39:33.630Z,16.94
2023-04-12T01:39:56.861Z,16.95
2023-04-12T01:40:20.033Z,16.93
2023-04-12T01:40:43.247Z,16.94
2023-04-12T01:41:06.125Z,16.94
2023-04-12T01:41:27.947Z,16.73
2023-04-12T01:41:50.508Z,16.73
2023-04-12T01:42:12.224Z,16.75
2023-04-12T01:42:36.223Z,16.76
2023-04-12T01:43:05.217Z,16.75
2023-04-12T01:43:27.478Z,16.76
2023-04-12T01:43:50.062Z,16.76
2023-04-12T01:44:14.649Z,16.76
2023-04-12T01:44:36.360Z,16.65
2023-04-12T01:44:58.366Z,16.61
2023-04-12T01:45:20.285Z,16.63
2023-04-12T01:45:43.177Z,16.60
2023-04-12T01:46:05.361Z,16.65
2023-04-12T01:46:27.173Z,16.61
2023-04-12T01:46:49.370Z,16.60
2023-04-12T01:47:12.066Z,16.56
2023-04-12T01:47:34.472Z,16.58
2023-04-12T01:47:56.393Z,16.59
2023-04-12T01:48:18.657Z,16.60
2023-04-12T01:48:46.807Z,16.43
2023-04-12T01:49:11.099Z,16.42
2023-04-12T01:49:43.581Z,16.29
2023-04-12T01:50:16.378Z,16.27
2023-04-12T01:50:44.786Z,16.29
2023-04-12T01:51:10.930Z,16.28
2023-04-12T01:51:42.753Z,16.39
2023-04-12T01:52:12.035Z,16.38
2023-04-12T01:52:38.487Z,16.35
2023-04-12T01:53:08.890Z,16.35
2023-04-12T01:53:40.525Z,16.33
2023-04-12T01:54:11.188Z,16.24
2023-04-12T01:54:38.793Z,16.23
2023-04-12T01:55:05.920Z,16.27
2023-04-12T01:55:30.596Z,16.30
2023-04-12T01:55:58.578Z,16.33
2023-04-12T01:56:22.405Z,16.32
2023-04-12T01:56:48.550Z,16.24
2023-04-12T01:57:11.401Z,16.26
2023-04-12T01:57:35.343Z,16.08
2023-04-12T01:57:59.243Z,16.15
2023-04-12T01:58:23.653Z,16.16
2023-04-12T01:58:50.713Z,16.26
2023-04-12T01:59:14.982Z,16.29
2023-04-12T01:59:41.819Z,16.35
2023-04-12T02:00:07.933Z,16.39
2023-04-12T02:00:36.895Z,16.40
2023-04-12T02:01:00.286Z,16.43
2023-04-12T02:01:24.332Z,16.30
2023-04-12T02:01:47.083Z,16.25
2023-04-12T02:02:10.442Z,16.26
2023-04-12T02:02:32.681Z,16.24
2023-04-12T02:02:57.559Z,16.19
2023-04-12T02:03:21.875Z,16.14
2023-04-12T02:03:45.734Z,16.14
2023-04-12T02:04:09.509Z,16.05
2023-04-12T02:04:33.322Z,15.87
2023-04-12T02:04:56.459Z,15.91
2023-04-12T02:05:18.809Z,15.95
2023-04-12T02:05:40.938Z,15.97
2023-04-12T02:06:04.872Z,15.73
2023-04-12T02:06:28.541Z,15.53
2023-04-12T02:06:50.352Z,15.59
2023-04-12T02:07:14.469Z,15.62
2023-04-12T02:07:37.271Z,15.63
2023-04-12T02:08:01.001Z,15.72
2023-04-12T02:08:22.834Z,15.74
2023-04-12T02:08:44.957Z,15.68
2023-04-12T02:09:06.660Z,15.74
2023-04-12T02:09:28.507Z,15.71
2023-04-12T02:09:51.170Z,15.76
2023-04-12T02:10:15.514Z,15.78
2023-04-12T02:10:39.821Z,15.79
2023-04-12T02:11:07.770Z,15.86
2023-04-12T02:11:30.769Z,15.83
2023-04-12T02:11:52.383Z,15.84
2023-04-12T02:12:14.049Z,15.91
2023-04-12T02:12:37.023Z,15.82
2023-04-12T02:13:01.347Z,15.88
2023-04-12T02:13:23.056Z,15.90
2023-04-12T02:13:44.755Z,15.91
2023-04-12T02:14:06.374Z,15.82
2023-04-12T02:14:31.449Z,15.84
2023-04-12T02:14:53.219Z,15.89
2023-04-12T02:15:16.125Z,15.97
2023-04-12T02:15:38.578Z,16.03
2023-04-12T02:16:02.845Z,15.95
2023-04-12T02:16:29.282Z,16.02
2023-04-12T02:16:54.800Z,15.96
2023-04-12T02:17:17.658Z,15.96
2023-04-12T02:17:40.969Z,15.98
2023-04-12T02:18:03.921Z,16.02
2023-04-12T02:18:25.628Z,16.03
2023-04-12T02:18:47.560Z,16.11
2023-04-12T02:19:10.651Z,16.14
2023-04-12T02:19:33.376Z,16.16
2023-04-12T02:19:55.289Z,16.22
2023-04-12T02:20:18.022Z,16.27
2023-04-12T02:20:40.826Z,16.20
2023-04-12T02:21:03.920Z,16.21
2023-04-12T02:21:26.272Z,16.19
2023-04-12T02:21:49.857Z,16.18
2023-04-12T02:22:11.742Z,16.20
2023-04-12T02:22:34.472Z,16.16
2023-04-12T02:22:56.220Z,16.21
2023-04-12T02:23:17.912Z,16.26
2023-04-12T02:23:39.589Z,16.24
2023-04-12T02:24:02.418Z,16.29
2023-04-12T02:24:24.150Z,16.31
2023-04-12T02:24:46.466Z,16.33
2023-04-12T02:25:08.477Z,16.38
2023-04-12T02:25:33.307Z,16.38
2023-04-12T02:25:55.605Z,16.38
2023-04-12T02:26:17.519Z,16.31
2023-04-12T02:26:39.975Z,16.26
2023-04-12T02:27:05.463Z,16.24
2023-04-12T02:27:27.356Z,16.27
2023-04-12T02:27:50.443Z,16.28
2023-04-12T02:28:12.418Z,16.29
2023-04-12T02:28:37.931Z,16.30
2023-04-12T02:29:00.926Z,16.28
2023-04-12T02:29:23.909Z,16.27
2023-04-12T02:29:47.038Z,16.19
2023-04-12T02:30:12.662Z,16.12
2023-04-12T02:30:34.849Z,15.94
2023-04-12T02:30:56.985Z,16.00
2023-04-12T02:31:19.566Z,16.00
2023-04-12T02:31:44.482Z,16.03
2023-04-12T02:32:06.975Z,16.08
2023-04-12T02:32:30.904Z,16.11
2023-04-12T02:32:53.099Z,16.14
2023-04-12T02:33:25.383Z,16.18
2023-04-12T02:33:48.756Z,16.15
2023-04-12T02:34:10.755Z,16.09
2023-04-12T02:34:36.782Z,16.15
2023-04-12T02:35:11.700Z,16.16
2023-04-12T02:35:33.882Z,16.13
2023-04-12T02:36:02.617Z,16.15
2023-04-12T02:36:24.794Z,16.09
2023-04-12T02:36:48.276Z,16.05
2023-04-12T02:37:13.641Z,16.02
2023-04-12T02:37:35.654Z,15.96
2023-04-12T02:37:57.868Z,16.00
2023-04-12T02:38:23.856Z,16.05
2023-04-12T02:38:46.580Z,15.96
2023-04-12T02:39:09.012Z,16.05
2023-04-12T02:39:32.198Z,16.08
2023-04-12T02:39:56.983Z,16.07
2023-04-12T02:40:20.753Z,16.08
2023-04-12T02:40:43.719Z,16.09
2023-04-12T02:41:09.524Z,16.04
2023-04-12T02:41:31.433Z,16.02
2023-04-12T02:41:54.169Z,16.06
2023-04-12T02:42:15.883Z,16.06
2023-04-12T02:42:39.380Z,15.91
2023-04-12T02:43:03.735Z,15.80
2023-04-12T02:43:26.505Z,15.62
2023-04-12T02:43:54.810Z,15.57
2023-04-12T02:44:16.750Z,15.61
2023-04-12T02:44:47.844Z,15.31
2023-04-12T02:45:10.892Z,15.39
2023-04-12T02:45:34.609Z,15.47
2023-04-12T02:45:56.496Z,15.39
2023-04-12T02:46:22.220Z,15.35
2023-04-12T02:46:49.298Z,15.27
2023-04-12T02:47:12.285Z,15.26
2023-04-12T02:47:36.650Z,15.22
2023-04-12T02:47:58.712Z,15.29
2023-04-12T02:48:23.696Z,15.38
2023-04-12T02:48:47.008Z,15.45
2023-04-12T02:49:09.088Z,15.44
2023-04-12T02:49:35.672Z,15.42
2023-04-12T02:49:58.094Z,15.38
2023-04-12T02:50:21.054Z,15.30
2023-04-12T02:50:50.234Z,15.10
2023-04-12T02:51:15.806Z,15.24
2023-04-12T02:51:39.126Z,15.22
2023-04-12T02:52:03.332Z,15.20
2023-04-12T02:52:34.490Z,15.22
2023-04-12T02:53:02.796Z,15.28
2023-04-12T02:53:26.301Z,15.33
2023-04-12T02:54:09.011Z,15.24
2023-04-12T02:54:46.023Z,15.36
2023-04-12T02:55:12.060Z,15.41
2023-04-12T02:55:33.729Z,15.41
2023-04-12T02:56:01.140Z,15.44
2023-04-12T02:56:24.637Z,15.42
2023-04-12T02:56:55.127Z,15.39
2023-04-12T02:57:32.914Z,15.54
2023-04-12T02:57:55.001Z,15.62
2023-04-12T02:58:19.691Z,15.64
2023-04-12T02:58:43.920Z,15.59
2023-04-12T02:59:09.056Z,15.67
2023-04-12T02:59:53.082Z,15.61
2023-04-12T03:00:20.110Z,15.72
2023-04-12T03:00:46.454Z,15.74
2023-04-12T03:01:13.078Z,15.78
2023-04-12T03:01:52.817Z,15.67
2023-04-12T03:02:24.405Z,15.55
2023-04-12T03:02:51.388Z,15.52
2023-04-12T03:03:19.344Z,15.39
2023-04-12T03:03:43.747Z,15.41
2023-04-12T03:04:27.234Z,15.42
2023-04-12T03:04:51.894Z,15.45
2023-04-12T03:05:18.534Z,15.38
2023-04-12T03:05:40.233Z,15.35
2023-04-12T03:06:01.959Z,15.16
2023-04-12T03:06:24.667Z,15.06
2023-04-12T03:06:53.653Z,15.01
2023-04-12T03:07:46.083Z,14.86
2023-04-12T03:08:10.056Z,14.80
2023-04-12T03:08:36.629Z,14.75
2023-04-12T03:08:58.538Z,14.75
2023-04-12T03:09:20.595Z,14.85
2023-04-12T03:09:42.670Z,14.93
2023-04-12T03:10:07.500Z,14.89
2023-04-12T03:10:33.857Z,14.93
2023-04-12T03:10:58.712Z,14.78
2023-04-12T03:11:22.654Z,14.89
2023-04-12T03:11:45.509Z,14.87
2023-04-12T03:12:07.395Z,14.93
2023-04-12T03:12:34.787Z,14.97
2023-04-12T03:13:16.552Z,15.13
2023-04-12T03:13:43.041Z,15.19
2023-04-12T03:14:04.838Z,15.24
2023-04-12T03:14:27.037Z,15.31
2023-04-12T03:14:49.919Z,15.31
2023-04-12T03:15:12.674Z,15.35
2023-04-12T03:15:34.460Z,15.41
2023-04-12T03:15:59.570Z,15.42
2023-04-12T03:16:29.973Z,15.35
2023-04-12T03:17:01.840Z,15.25
2023-04-12T03:17:23.992Z,15.28
2023-04-12T03:17:49.036Z,15.31
2023-04-12T03:18:13.039Z,15.33
2023-04-12T03:18:43.898Z,15.25
2023-04-12T03:19:06.709Z,15.27
2023-04-12T03:19:32.857Z,15.30
2023-04-12T03:19:55.480Z,15.33
2023-04-12T03:20:17.813Z,15.17
2023-04-12T03:20:47.810Z,15.15
2023-04-12T03:21:12.116Z,15.11
2023-04-12T03:21:35.486Z,14.93
2023-04-12T03:21:57.193Z,15.01
2023-04-12T03:22:19.358Z,15.06
2023-04-12T03:22:46.825Z,15.11
2023-04-12T03:23:08.528Z,15.16
2023-04-12T03:23:33.060Z,15.14
2023-04-12T03:24:04.950Z,15.14
2023-04-12T03:24:26.855Z,15.10
2023-04-12T03:24:49.741Z,15.06
2023-04-12T03:25:14.582Z,15.04
2023-04-12T03:25:42.520Z,15.13
2023-04-12T03:26:31.545Z,15.19
2023-04-12T03:26:58.080Z,15.19
2023-04-12T03:27:21.471Z,15.19
2023-04-12T03:27:44.983Z,15.27
2023-04-12T03:28:09.875Z,15.25
2023-04-12T03:28:42.967Z,15.17
2023-04-12T03:29:06.101Z,15.23
2023-04-12T03:29:29.584Z,15.08
2023-04-12T03:29:52.269Z,15.15
2023-04-12T03:30:16.277Z,14.97
2023-04-12T03:30:38.762Z,15.03
2023-04-12T03:31:02.754Z,15.04
2023-04-12T03:31:33.955Z,15.09
2023-04-12T03:32:00.158Z,15.14
2023-04-12T03:32:25.085Z,15.06
2023-04-12T03:32:47.170Z,15.05
2023-04-12T03:33:09.436Z,14.84
2023-04-12T03:33:31.345Z,14.96
2023-04-12T03:33:58.376Z,14.95
2023-04-12T03:34:20.796Z,14.95
2023-04-12T03:34:47.169Z,14.98
2023-04-12T03:35:12.031Z,15.06
2023-04-12T03:35:37.285Z,15.16
2023-04-12T03:35:59.440Z,15.04
2023-04-12T03:36:23.170Z,15.03
2023-04-12T03:36:50.949Z,14.91
2023-04-12T03:37:26.095Z,14.88
2023-04-12T03:37:52.033Z,14.95
2023-04-12T03:38:13.804Z,14.86
2023-04-12T03:38:38.039Z,14.87
2023-04-12T03:39:02.200Z,14.90
2023-04-12T03:39:27.469Z,14.84
2023-04-12T03:39:49.200Z,14.95
2023-04-12T03:40:16.484Z,14.88
2023-04-12T03:40:44.839Z,14.87
2023-04-12T03:41:08.140Z,14.93
2023-04-12T03:41:32.405Z,14.89
2023-04-12T03:41:57.120Z,14.98
2023-04-12T03:42:32.899Z,15.04
2023-04-12T03:43:01.764Z,15.08
2023-04-12T03:43:24.433Z,15.01
2023-04-12T03:43:47.474Z,15.07
2023-04-12T03:44:14.615Z,15.10
2023-04-12T03:44:37.434Z,15.18
2023-04-12T03:45:05.523Z,15.11
2023-04-12T03:45:27.591Z,15.07
2023-04-12T03:45:52.818Z,15.14
2023-04-12T03:46:15.614Z,15.14
2023-04-12T03:46:38.532Z,15.13
2023-04-12T03:47:04.299Z,15.17
2023-04-12T03:47:31.673Z,15.17
2023-04-12T03:47:53.637Z,15.18
2023-04-12T03:48:16.759Z,15.27
2023-04-12T03:48:38.587Z,15.25
2023-04-12T03:49:00.745Z,15.11
2023-04-12T03:49:24.271Z,14.99
2023-04-12T03:49:57.538Z,15.03
2023-04-12T03:50:29.570Z,15.09
2023-04-12T03:50:54.601Z,15.05
2023-04-12T03:51:22.109Z,14.97
2023-04-12T03:51:44.012Z,14.93
2023-04-12T03:52:06.495Z,14.96
2023-04-12T03:52:30.534Z,15.04
2023-04-12T03:52:52.406Z,15.02
2023-04-12T03:53:14.339Z,15.10
2023-04-12T03:53:39.354Z,15.10
2023-04-12T03:54:04.363Z,15.07
2023-04-12T03:54:34.944Z,15.10
2023-04-12T03:55:01.157Z,15.17
2023-04-12T03:55:23.930Z,15.10
2023-04-12T03:55:47.658Z,15.13
2023-04-12T03:56:10.166Z,15.19
2023-04-12T03:56:32.078Z,15.21
2023-04-12T03:56:57.705Z,15.09
2023-04-12T03:57:34.848Z,15.01
2023-04-12T03:57:57.908Z,14.95
2023-04-12T03:58:23.845Z,15.05
2023-04-12T03:58:47.044Z,14.99
2023-04-12T03:59:10.297Z,15.03
2023-04-12T03:59:33.459Z,15.01
2023-04-12T03:59:55.993Z,15.02
2023-04-12T04:00:21.325Z,15.08
2023-04-12T04:01:01.628Z,15.14
2023-04-12T04:01:23.793Z,15.17
2023-04-12T04:01:47.715Z,15.16
2023-04-12T04:02:10.663Z,15.18
2023-04-12T04:02:38.982Z,15.25
2023-04-12T04:03:05.661Z,15.24
2023-04-12T04:03:35.397Z,15.26
2023-04-12T04:04:07.631Z,15.31
2023-04-12T04:04:30.045Z,15.36
2023-04-12T04:04:55.457Z,15.27
2023-04-12T04:05:21.974Z,15.19
2023-04-12T04:05:45.217Z,15.11
2023-04-12T04:06:09.292Z,14.84
2023-04-12T04:06:31.132Z,14.71
2023-04-12T04:06:57.805Z,14.76
2023-04-12T04:07:22.197Z,14.82
2023-04-12T04:07:45.810Z,14.87
2023-04-12T04:08:08.841Z,14.89
2023-04-12T04:08:44.682Z,14.91
2023-04-12T04:09:07.431Z,14.67
2023-04-12T04:09:33.099Z,14.61
2023-04-12T04:09:56.108Z,14.73
2023-04-12T04:10:20.407Z,14.77
2023-04-12T04:10:42.774Z,14.82
2023-04-12T04:11:06.663Z,14.90
2023-04-12T04:11:37.653Z,14.98
2023-04-12T04:12:01.602Z,14.99
2023-04-12T04:12:24.202Z,14.95
2023-04-12T04:12:49.210Z,14.91
2023-04-12T04:13:11.851Z,14.90
2023-04-12T04:13:33.625Z,14.75
2023-04-12T04:14:01.148Z,14.79
2023-04-12T04:14:22.849Z,14.78
2023-04-12T04:14:46.688Z,14.81
2023-04-12T04:15:17.538Z,14.76
2023-04-12T04:15:39.560Z,14.72
2023-04-12T04:16:03.814Z,14.78
2023-04-12T04:16:25.613Z,14.73
2023-04-12T04:16:49.839Z,14.54
2023-04-12T04:17:13.387Z,14.69
2023-04-12T04:17:35.162Z,14.82
2023-04-12T04:17:56.959Z,14.91
2023-04-12T04:18:18.639Z,14.84
2023-04-12T04:18:42.123Z,14.84
2023-04-12T04:19:06.239Z,14.86
2023-04-12T04:19:28.222Z,14.86
2023-04-12T04:19:50.207Z,14.82
2023-04-12T04:20:13.633Z,14.78
2023-04-12T04:20:38.848Z,14.77
2023-04-12T04:21:00.822Z,14.64
2023-04-12T04:21:24.166Z,14.64
2023-04-12T04:21:51.033Z,14.59
2023-04-12T04:22:13.961Z,14.61
2023-04-12T04:22:36.813Z,14.65
2023-04-12T04:22:59.559Z,14.66
2023-04-12T04:23:22.136Z,14.78
2023-04-12T04:23:45.355Z,14.84
2023-04-12T04:24:11.184Z,14.82
2023-04-12T04:24:38.946Z,14.90
2023-04-12T04:25:02.936Z,14.91
2023-04-12T04:25:29.950Z,14.91
2023-04-12T04:25:55.869Z,14.94
2023-04-12T04:26:19.016Z,14.98
2023-04-12T04:26:54.272Z,14.94
2023-04-12T04:27:20.497Z,15.03
2023-04-12T04:27:44.929Z,15.03
2023-04-12T04:28:07.690Z,15.08
2023-04-12T04:28:29.382Z,14.94
2023-04-12T04:28:51.727Z,14.92
2023-04-12T04:29:19.420Z,14.94
2023-04-12T04:29:45.546Z,14.96
2023-04-12T04:30:10.495Z,15.03
2023-04-12T04:30:38.825Z,15.08
2023-04-12T04:31:06.134Z,15.05
2023-04-12T04:31:34.552Z,15.06
2023-04-12T04:31:58.823Z,15.07
2023-04-12T04:32:21.532Z,15.06
2023-04-12T04:32:46.089Z,15.04
2023-04-12T04:33:09.005Z,15.04
2023-04-12T04:33:31.603Z,15.00
2023-04-12T04:33:56.312Z,14.94
2023-04-12T04:34:26.418Z,14.94
2023-04-12T04:34:56.122Z,14.97
2023-04-12T04:35:18.344Z,14.92
2023-04-12T04:35:56.469Z,14.84
2023-04-12T04:36:22.270Z,14.79
2023-04-12T04:36:48.215Z,14.74
2023-04-12T04:37:18.866Z,14.67
2023-04-12T04:37:43.487Z,14.49
2023-04-12T04:38:05.173Z,14.57
2023-04-12T04:38:27.041Z,14.55
2023-04-12T04:38:57.276Z,14.60
2023-04-12T04:39:35.073Z,14.73
2023-04-12T04:39:56.988Z,14.83
2023-04-12T04:40:21.177Z,14.88
2023-04-12T04:40:43.089Z,14.94
2023-04-12T04:41:09.069Z,14.98
2023-04-12T04:41:43.204Z,15.09
2023-04-12T04:42:15.614Z,15.09
2023-04-12T04:42:55.146Z,14.85
2023-04-12T04:43:20.175Z,14.84
2023-04-12T04:43:42.996Z,14.85
2023-04-12T04:44:09.547Z,14.77
2023-04-12T04:44:36.001Z,14.62
2023-04-12T04:45:04.374Z,14.67
2023-04-12T04:45:33.618Z,14.61
2023-04-12T04:45:56.863Z,14.61
2023-04-12T04:46:21.953Z,14.62
2023-04-12T04:46:43.651Z,14.59
2023-04-12T04:47:08.476Z,14.62
2023-04-12T04:47:31.315Z,14.68
2023-04-12T04:47:53.658Z,14.62
2023-04-12T04:48:16.325Z,14.68
2023-04-12T04:48:38.074Z,14.73
2023-04-12T04:49:01.086Z,14.74
2023-04-12T04:49:22.792Z,14.54
2023-04-12T04:49:44.762Z,14.57
2023-04-12T04:50:16.545Z,14.59
2023-04-12T04:50:39.377Z,14.61
2023-04-12T04:51:01.701Z,14.66
2023-04-12T04:51:23.406Z,14.70
2023-04-12T04:51:46.964Z,14.80
2023-04-12T04:52:09.382Z,14.81
2023-04-12T04:52:31.105Z,14.80
2023-04-12T04:52:57.667Z,14.81
2023-04-12T04:53:23.077Z,14.83
2023-04-12T04:53:44.750Z,14.86
2023-04-12T04:54:08.458Z,14.88
2023-04-12T04:54:34.524Z,14.83
2023-04-12T04:54:57.856Z,14.83
2023-04-12T04:55:24.612Z,14.83
2023-04-12T04:55:47.713Z,14.83
2023-04-12T04:56:11.984Z,14.82
2023-04-12T04:56:34.247Z,14.92
2023-04-12T04:56:56.388Z,14.98
2023-04-12T04:57:18.136Z,15.02
2023-04-12T04:57:41.063Z,15.09
2023-04-12T04:58:03.053Z,15.13
2023-04-12T04:58:25.200Z,15.03
2023-04-12T04:58:46.982Z,14.99
2023-04-12T04:59:09.823Z,15.07
2023-04-12T04:59:31.517Z,15.09
2023-04-12T05:00:11.464Z,14.83
2023-04-12T05:00:36.188Z,14.86
2023-04-12T05:00:59.956Z,14.96
2023-04-12T05:01:26.194Z,15.04
2023-04-12T05:01:48.763Z,15.03
2023-04-12T05:02:13.224Z,15.00
2023-04-12T05:02:36.947Z,15.03
2023-04-12T05:02:58.701Z,15.04
2023-04-12T05:03:23.324Z,14.93
2023-04-12T05:03:46.270Z,14.91
2023-04-12T05:04:09.201Z,14.79
2023-04-12T05:04:31.400Z,14.76
2023-04-12T05:04:56.262Z,14.77
2023-04-12T05:05:23.139Z,14.59
2023-04-12T05:05:48.988Z,14.67
2023-04-12T05:06:10.747Z,14.78
2023-04-12T05:06:34.893Z,14.81
2023-04-12T05:06:58.088Z,14.91
2023-04-12T05:07:21.371Z,14.93
2023-04-12T05:07:44.462Z,14.91
2023-04-12T05:08:06.164Z,14.95
2023-04-12T05:08:30.629Z,14.90
2023-04-12T05:08:52.473Z,14.87
2023-04-12T05:09:14.557Z,14.90
2023-04-12T05:09:42.591Z,14.88
2023-04-12T05:10:06.482Z,14.89
2023-04-12T05:10:32.517Z,14.78
2023-04-12T05:10:57.734Z,14.50
2023-04-12T05:11:24.439Z,14.56
2023-04-12T05:11:46.609Z,14.50
2023-04-12T05:12:08.362Z,14.45
2023-04-12T05:12:31.366Z,14.54
2023-04-12T05:12:53.068Z,14.55
2023-04-12T05:13:15.888Z,14.52
2023-04-12T05:13:38.284Z,14.58
2023-04-12T05:14:00.470Z,14.46
2023-04-12T05:14:23.445Z,14.45
2023-04-12T05:14:49.892Z,14.34
2023-04-12T05:15:14.761Z,14.19
2023-04-12T05:15:36.673Z,14.25
2023-04-12T05:15:59.316Z,14.22
2023-04-12T05:16:21.056Z,14.25
2023-04-12T05:16:42.873Z,14.22
2023-04-12T05:17:04.664Z,14.24
2023-04-12T05:17:26.972Z,14.27
2023-04-12T05:17:49.675Z,14.34
2023-04-12T05:18:11.417Z,14.45
2023-04-12T05:18:33.201Z,14.44
2023-04-12T05:18:55.152Z,14.44
2023-04-12T05:19:16.923Z,14.54